Time;durP1;ratioP1;P1;durP2;ratioP2;P2;SDS_P1;SDS_P2;PMS_P1;PMS_P2;Temp;Humidity;BMP_temperature;BMP_pressure;BME280_temperature;BME280_humidity;BME280_pressure;Samples;Min_cycle;Max_cycle;Signal;HPM_P1;HPM_P2
2023/05/08 00:01:02;;;;;;;;;;;19.10;55.60;;;;;;6296054;28;19916;-62
2023/05/08 00:04:02;;;;;;;;;;;19.10;55.60;;;;;;6295775;28;19909;-62
2023/05/08 00:07:03;;;;;;;;;;;19.10;55.60;;;;;;6295895;28;19916;-62
2023/05/08 00:10:07;;;;;;;;;;;19.10;55.60;;;;;;6296089;28;20393;-62
2023/05/08 00:13:07;;;;;;;;;;;19.10;55.60;;;;;;6295734;28;19909;-62
2023/05/08 00:16:08;;;;;;;;;;;19.10;55.60;;;;;;6295743;28;19956;-63
2023/05/08 00:19:09;;;;;;;;;;;19.10;55.60;;;;;;6295422;28;19924;-62
2023/05/08 00:22:09;;;;;;;;;;;19.10;55.60;;;;;;6295404;28;20326;-63
2023/05/08 00:25:10;;;;;;;;;;;19.10;55.60;;;;;;6277268;28;19909;-62
2023/05/08 00:28:11;;;;;;;;;;;19.10;55.60;;;;;;6295058;28;20489;-63
2023/05/08 00:31:12;;;;;;;;;;;19.10;55.60;;;;;;6295233;28;19912;-62
2023/05/08 00:34:13;;;;;;;;;;;19.10;55.60;;;;;;6277545;28;19999;-63
2023/05/08 00:37:13;;;;;;;;;;;19.10;55.60;;;;;;6294996;28;19916;-63
2023/05/08 00:40:14;;;;;;;;;;;19.10;55.60;;;;;;6276990;28;19916;-63
2023/05/08 00:43:15;;;;;;;;;;;19.10;55.60;;;;;;6294644;28;19943;-63
2023/05/08 00:46:16;;;;;;;;;;;19.10;55.60;;;;;;6294768;28;20562;-63
2023/05/08 00:49:17;;;;;;;;;;;19.10;55.60;;;;;;6294778;28;19909;-63
2023/05/08 00:52:18;;;;;;;;;;;19.10;55.60;;;;;;6294703;28;19909;-62
2023/05/08 00:55:19;;;;;;;;;;;19.10;55.60;;;;;;6294541;28;19909;-63
2023/05/08 00:58:20;;;;;;;;;;;19.10;55.70;;;;;;6294457;28;19908;-62
2023/05/08 01:01:21;;;;;;;;;;;19.10;55.60;;;;;;6294386;28;19913;-62
2023/05/08 01:04:23;;;;;;;;;;;19.10;55.60;;;;;;6294383;28;19939;-63
2023/05/08 01:07:24;;;;;;;;;;;19.10;55.60;;;;;;6294229;28;20270;-63
2023/05/08 01:10:28;;;;;;;;;;;19.10;55.60;;;;;;6294379;28;20001;-63
2023/05/08 01:13:47;;;;;;;;;;;19.10;55.60;;;;;;6293827;28;19908;-63
2023/05/08 01:16:48;;;;;;;;;;;19.10;55.60;;;;;;6294004;28;19912;-63
2023/05/08 01:19:54;;;;;;;;;;;19.10;55.60;;;;;;6294462;28;19962;-62
2023/05/08 01:22:55;;;;;;;;;;;19.10;55.60;;;;;;6294348;28;20277;-63
2023/05/08 01:26:11;;;;;;;;;;;19.10;55.60;;;;;;6293897;28;19908;-62
2023/05/08 01:29:29;;;;;;;;;;;19.10;55.60;;;;;;6294009;28;19912;-62
2023/05/08 01:32:34;;;;;;;;;;;19.10;55.60;;;;;;6293814;28;20003;-63
2023/05/08 01:35:44;;;;;;;;;;;19.10;55.70;;;;;;6293826;28;19947;-63
2023/05/08 01:39:06;;;;;;;;;;;19.10;55.60;;;;;;6293185;28;19973;-62
2023/05/08 01:42:11;;;;;;;;;;;19.10;55.60;;;;;;6269139;28;20378;-62
2023/05/08 01:45:13;;;;;;;;;;;19.10;55.60;;;;;;6279303;28;19920;-63
2023/05/08 01:48:31;;;;;;;;;;;19.10;55.60;;;;;;6293847;28;19995;-63
2023/05/08 01:51:36;;;;;;;;;;;19.10;55.70;;;;;;6293676;28;20408;-61
2023/05/08 01:54:41;;;;;;;;;;;19.10;55.70;;;;;;6293611;28;19914;-62
2023/05/08 01:57:45;;;;;;;;;;;19.10;55.60;;;;;;6293288;28;20339;-63
2023/05/08 02:00:47;;;;;;;;;;;19.10;55.70;;;;;;6293679;28;19917;-62
2023/05/08 02:03:48;;;;;;;;;;;19.10;55.70;;;;;;6293314;28;19915;-63
2023/05/08 02:06:50;;;;;;;;;;;19.10;55.60;;;;;;6293425;28;19908;-63
2023/05/08 02:09:52;;;;;;;;;;;19.10;55.70;;;;;;6293049;28;19932;-63
2023/05/08 02:12:53;;;;;;;;;;;19.10;55.70;;;;;;6293475;28;20393;-61
2023/05/08 02:15:55;;;;;;;;;;;19.10;55.60;;;;;;6293207;28;19912;-62
2023/05/08 02:18:59;;;;;;;;;;;19.10;55.70;;;;;;6293392;28;19954;-62
2023/05/08 02:22:00;;;;;;;;;;;19.10;55.60;;;;;;6293295;28;20541;-62
2023/05/08 02:25:00;;;;;;;;;;;19.10;55.60;;;;;;6292506;28;19917;-62
2023/05/08 02:28:01;;;;;;;;;;;19.10;55.60;;;;;;6293128;28;19908;-62
2023/05/08 02:31:02;;;;;;;;;;;19.10;55.70;;;;;;6293072;28;19919;-62
2023/05/08 02:34:04;;;;;;;;;;;19.10;55.70;;;;;;6293255;28;19963;-62
2023/05/08 02:37:04;;;;;;;;;;;19.10;55.70;;;;;;6292871;28;19908;-62
2023/05/08 02:40:05;;;;;;;;;;;19.10;55.60;;;;;;6293080;28;19956;-62
2023/05/08 02:43:06;;;;;;;;;;;19.10;55.70;;;;;;6293047;28;19912;-63
2023/05/08 02:46:12;;;;;;;;;;;19.10;55.70;;;;;;6292853;28;19925;-62
2023/05/08 02:49:13;;;;;;;;;;;19.10;55.70;;;;;;6274658;28;20351;-63
2023/05/08 02:52:29;;;;;;;;;;;19.10;55.70;;;;;;6295713;28;19939;-63
2023/05/08 02:55:36;;;;;;;;;;;19.10;55.70;;;;;;6297875;28;19920;-62
2023/05/08 02:58:44;;;;;;;;;;;19.10;55.70;;;;;;6297467;28;19931;-63
2023/05/08 03:01:45;;;;;;;;;;;19.10;55.70;;;;;;6297391;28;19916;-63
2023/05/08 03:04:50;;;;;;;;;;;19.10;55.70;;;;;;6297281;28;19982;-63
2023/05/08 03:07:53;;;;;;;;;;;19.10;55.70;;;;;;6296783;28;19908;-62
2023/05/08 03:10:56;;;;;;;;;;;19.10;55.70;;;;;;6297362;28;19948;-62
2023/05/08 03:13:57;;;;;;;;;;;19.10;55.60;;;;;;6297401;28;19916;-62
2023/05/08 03:16:59;;;;;;;;;;;19.10;55.70;;;;;;6296986;28;19981;-63
2023/05/08 03:20:04;;;;;;;;;;;19.10;55.60;;;;;;6279030;28;20011;-62
2023/05/08 03:23:05;;;;;;;;;;;19.10;55.70;;;;;;6296986;28;19912;-62
2023/05/08 03:26:06;;;;;;;;;;;19.10;55.60;;;;;;6297054;28;19920;-63
2023/05/08 03:29:07;;;;;;;;;;;19.10;55.70;;;;;;6296991;28;19909;-62
2023/05/08 03:32:08;;;;;;;;;;;19.10;55.70;;;;;;6296908;28;19961;-62
2023/05/08 03:35:09;;;;;;;;;;;19.10;55.70;;;;;;6296662;28;20349;-63
2023/05/08 03:38:10;;;;;;;;;;;19.10;55.70;;;;;;6296255;28;19958;-62
2023/05/08 03:41:11;;;;;;;;;;;19.10;55.70;;;;;;6278369;28;19916;-63
2023/05/08 03:44:12;;;;;;;;;;;19.10;55.70;;;;;;6296415;28;19966;-63
2023/05/08 03:47:13;;;;;;;;;;;19.10;55.70;;;;;;6296314;28;19928;-62
2023/05/08 03:50:14;;;;;;;;;;;19.10;55.70;;;;;;6296325;28;20366;-62
2023/05/08 03:53:15;;;;;;;;;;;19.10;55.70;;;;;;6296192;28;19909;-63
2023/05/08 03:56:16;;;;;;;;;;;19.10;55.70;;;;;;6295971;28;19954;-63
2023/05/08 04:03:02;;;;;;;;;;;19.10;55.70;;;;;;6295425;28;20420;-62
2023/05/08 04:06:17;;;;;;;;;;;19.10;55.70;;;;;;6296081;28;20435;-63
2023/05/08 04:09:23;;;;;;;;;;;19.10;55.70;;;;;;6290446;28;19912;-62
2023/05/08 04:12:44;;;;;;;;;;;19.10;55.60;;;;;;6295929;28;19932;-61
2023/05/08 04:15:50;;;;;;;;;;;19.10;55.70;;;;;;6254362;28;20538;-62
2023/05/08 04:18:55;;;;;;;;;;;19.10;55.70;;;;;;6295375;28;19919;-62
2023/05/08 04:21:57;;;;;;;;;;;19.10;55.70;;;;;;6295671;28;19920;-63
2023/05/08 04:25:00;;;;;;;;;;;19.10;55.70;;;;;;6295249;28;19919;-63
2023/05/08 04:28:01;;;;;;;;;;;19.10;55.60;;;;;;6269460;28;19909;-63
2023/05/08 04:31:02;;;;;;;;;;;19.10;55.60;;;;;;6270187;28;19963;-62
2023/05/08 04:34:03;;;;;;;;;;;19.10;55.60;;;;;;6270584;28;20384;-62
2023/05/08 04:37:05;;;;;;;;;;;19.10;55.60;;;;;;6270613;28;19909;-62
2023/05/08 04:40:06;;;;;;;;;;;19.10;55.70;;;;;;6270214;28;19912;-63
2023/05/08 04:43:07;;;;;;;;;;;19.10;55.60;;;;;;6280505;28;19908;-63
2023/05/08 04:46:07;;;;;;;;;;;19.10;55.70;;;;;;6294684;28;19943;-63
2023/05/08 04:49:08;;;;;;;;;;;19.10;55.60;;;;;;6294767;28;20328;-62
2023/05/08 04:52:09;;;;;;;;;;;19.10;55.60;;;;;;6294882;28;19913;-63
2023/05/08 04:55:10;;;;;;;;;;;19.10;55.60;;;;;;6294757;28;20365;-62
2023/05/08 04:58:10;;;;;;;;;;;19.10;55.60;;;;;;6294436;28;19915;-62
2023/05/08 05:01:11;;;;;;;;;;;19.10;55.60;;;;;;6293416;28;19917;-63
2023/05/08 05:04:11;;;;;;;;;;;19.10;55.60;;;;;;6294352;28;19919;-63
2023/05/08 05:07:12;;;;;;;;;;;19.10;55.60;;;;;;6294201;28;19983;-63
2023/05/08 05:10:13;;;;;;;;;;;19.10;55.60;;;;;;6288547;28;19988;-63
2023/05/08 05:13:13;;;;;;;;;;;19.10;55.60;;;;;;6290802;28;19944;-64
2023/05/08 05:16:14;;;;;;;;;;;19.10;55.60;;;;;;6293944;28;20404;-66
2023/05/08 05:19:15;;;;;;;;;;;19.10;55.50;;;;;;6293650;28;19909;-66
2023/05/08 05:22:15;;;;;;;;;;;19.10;54.30;;;;;;6294057;28;19912;-67
2023/05/08 05:25:16;;;;;;;;;;;19.10;53.50;;;;;;6293986;28;20003;-67
2023/05/08 05:28:17;;;;;;;;;;;19.10;52.90;;;;;;6276135;28;19952;-67
2023/05/08 05:31:17;;;;;;;;;;;19.10;52.50;;;;;;6293329;28;19998;-64
2023/05/08 05:34:18;;;;;;;;;;;19.10;51.70;;;;;;6272698;28;19908;-66
2023/05/08 05:37:19;;;;;;;;;;;19.10;51.40;;;;;;6251085;28;20407;-65
2023/05/08 05:40:19;;;;;;;;;;;19.10;51.20;;;;;;6269397;28;19916;-66
2023/05/08 05:43:20;;;;;;;;;;;19.10;50.80;;;;;;6251242;28;19909;-66
2023/05/08 05:46:25;;;;;;;;;;;19.10;50.60;;;;;;6269502;28;20390;-65
2023/05/08 05:49:26;;;;;;;;;;;19.10;49.70;;;;;;6271626;28;19952;-65
2023/05/08 05:52:26;;;;;;;;;;;19.10;49.40;;;;;;6293182;28;20293;-66
2023/05/08 05:55:27;;;;;;;;;;;19.10;50.10;;;;;;6285501;28;19919;-67
2023/05/08 05:58:27;;;;;;;;;;;19.10;49.70;;;;;;6292851;28;19935;-67
2023/05/08 06:01:28;;;;;;;;;;;19.10;50.30;;;;;;6286572;28;19917;-67
2023/05/08 06:04:29;;;;;;;;;;;19.10;51.40;;;;;;6295039;28;19923;-66
2023/05/08 06:07:29;;;;;;;;;;;19.10;51.20;;;;;;6294507;28;19926;-66
2023/05/08 06:10:30;;;;;;;;;;;19.10;51.70;;;;;;6295207;28;20352;-66
2023/05/08 06:13:31;;;;;;;;;;;19.10;51.90;;;;;;6304802;28;19908;-66
2023/05/08 06:16:31;;;;;;;;;;;19.10;52.10;;;;;;6292338;28;19942;-67
2023/05/08 06:19:32;;;;;;;;;;;19.10;52.30;;;;;;6285384;28;19942;-66
2023/05/08 06:22:32;;;;;;;;;;;19.10;52.50;;;;;;6294728;28;19909;-66
2023/05/08 06:25:33;;;;;;;;;;;19.10;52.60;;;;;;6298057;28;19908;-66
2023/05/08 06:28:34;;;;;;;;;;;19.10;52.70;;;;;;6324704;28;19908;-66
2023/05/08 06:31:34;;;;;;;;;;;19.10;52.80;;;;;;6325113;28;19916;-66
2023/05/08 06:34:35;;;;;;;;;;;19.10;53.00;;;;;;6307710;28;19935;-67
2023/05/08 06:37:36;;;;;;;;;;;19.10;52.90;;;;;;6299997;28;19913;-66
2023/05/08 06:40:40;;;;;;;;;;;19.10;53.10;;;;;;6299879;28;19920;-67
2023/05/08 06:43:40;;;;;;;;;;;19.10;52.50;;;;;;6299751;28;19916;-67
2023/05/08 06:46:41;;;;;;;;;;;19.10;52.80;;;;;;6299894;28;19966;-66
2023/05/08 06:49:41;;;;;;;;;;;19.10;53.20;;;;;;6300205;28;19913;-66
2023/05/08 06:52:42;;;;;;;;;;;19.10;52.80;;;;;;6300058;28;19913;-66
2023/05/08 06:55:42;;;;;;;;;;;19.10;52.70;;;;;;6299750;28;19954;-66
2023/05/08 06:58:43;;;;;;;;;;;19.10;53.10;;;;;;6281821;28;19915;-67
2023/05/08 07:01:44;;;;;;;;;;;19.10;52.70;;;;;;6299563;28;19913;-66
2023/05/08 07:04:44;;;;;;;;;;;19.10;52.90;;;;;;6299473;28;19908;-66
2023/05/08 07:07:45;;;;;;;;;;;19.10;52.70;;;;;;6299590;28;19909;-66
2023/05/08 07:10:45;;;;;;;;;;;19.10;52.70;;;;;;6281224;28;19912;-66
2023/05/08 07:13:47;;;;;;;;;;;19.10;53.10;;;;;;6281336;28;19908;-66
2023/05/08 07:16:47;;;;;;;;;;;19.10;53.00;;;;;;6298976;28;19962;-67
2023/05/08 07:19:51;;;;;;;;;;;19.10;53.10;;;;;;6299266;28;20257;-66
2023/05/08 07:22:51;;;;;;;;;;;19.10;52.90;;;;;;6298959;28;19916;-66
2023/05/08 07:25:53;;;;;;;;;;;19.10;53.20;;;;;;6280525;28;19961;-66
2023/05/08 07:28:53;;;;;;;;;;;19.10;53.10;;;;;;6298470;28;19913;-66
2023/05/08 07:31:54;;;;;;;;;;;19.10;53.20;;;;;;6299288;28;19912;-66
2023/05/08 07:34:55;;;;;;;;;;;19.10;53.30;;;;;;6298509;28;20480;-66
2023/05/08 07:37:55;;;;;;;;;;;19.10;53.20;;;;;;6298733;28;19944;-66
2023/05/08 07:40:56;;;;;;;;;;;19.10;53.40;;;;;;6298338;28;20328;-65
2023/05/08 07:43:57;;;;;;;;;;;19.10;53.20;;;;;;6298667;28;19917;-65
2023/05/08 07:46:58;;;;;;;;;;;19.10;54.10;;;;;;6298330;28;19927;-66
2023/05/08 07:49:58;;;;;;;;;;;19.10;53.50;;;;;;6298436;28;19963;-66
2023/05/08 07:52:59;;;;;;;;;;;19.10;53.50;;;;;;6298600;28;19908;-66
2023/05/08 07:55:59;;;;;;;;;;;19.10;53.60;;;;;;6297870;28;19995;-66
2023/05/08 07:59:00;;;;;;;;;;;19.10;53.60;;;;;;6289002;28;19912;-66
2023/05/08 08:02:01;;;;;;;;;;;19.10;53.60;;;;;;6271188;28;19919;-66
2023/05/08 08:05:01;;;;;;;;;;;19.10;53.50;;;;;;6297348;28;20010;-66
2023/05/08 08:08:02;;;;;;;;;;;19.10;53.70;;;;;;6298589;28;19958;-66
2023/05/08 08:11:02;;;;;;;;;;;19.10;53.60;;;;;;6305151;28;19912;-66
2023/05/08 08:14:03;;;;;;;;;;;19.10;53.00;;;;;;6278992;28;20050;-66
2023/05/08 08:17:03;;;;;;;;;;;19.10;53.20;;;;;;6294779;28;19919;-64
2023/05/08 08:20:04;;;;;;;;;;;19.10;53.50;;;;;;6279641;28;19912;-65
2023/05/08 08:23:05;;;;;;;;;;;19.10;53.60;;;;;;6297964;28;19912;-66
2023/05/08 08:26:06;;;;;;;;;;;19.10;53.60;;;;;;6297332;28;20576;-66
2023/05/08 08:29:06;;;;;;;;;;;19.10;52.60;;;;;;6296795;28;19912;-66
2023/05/08 08:32:07;;;;;;;;;;;19.10;52.30;;;;;;6307540;28;19909;-66
2023/05/08 08:35:08;;;;;;;;;;;19.10;52.60;;;;;;6278311;28;19909;-66
2023/05/08 08:38:08;;;;;;;;;;;19.10;52.20;;;;;;6278809;28;19920;-66
2023/05/08 08:41:12;;;;;;;;;;;19.10;52.60;;;;;;6270538;28;19919;-66
2023/05/08 08:44:12;;;;;;;;;;;19.10;52.60;;;;;;6271078;28;19920;-66
2023/05/08 08:47:15;;;;;;;;;;;19.10;52.40;;;;;;6293537;28;20281;-66
2023/05/08 08:50:18;;;;;;;;;;;19.10;53.00;;;;;;6295910;28;20283;-65
2023/05/08 08:53:23;;;;;;;;;;;19.10;53.00;;;;;;6288846;28;19909;-66
2023/05/08 08:56:24;;;;;;;;;;;19.10;52.90;;;;;;6272549;28;19958;-66
2023/05/08 08:59:25;;;;;;;;;;;19.10;52.60;;;;;;6269709;28;20328;-66
2023/05/08 09:02:26;;;;;;;;;;;19.10;52.60;;;;;;6292678;28;19958;-67
2023/05/08 09:05:26;;;;;;;;;;;19.10;52.60;;;;;;6262553;28;19938;-67
2023/05/08 09:08:27;;;;;;;;;;;19.10;53.10;;;;;;6295397;28;19916;-66
2023/05/08 09:11:28;;;;;;;;;;;19.10;53.10;;;;;;6295584;28;20003;-67
2023/05/08 09:14:28;;;;;;;;;;;19.10;53.20;;;;;;6295789;28;19999;-67
2023/05/08 09:17:31;;;;;;;;;;;19.10;53.30;;;;;;6294900;28;19909;-67
2023/05/08 09:20:31;;;;;;;;;;;19.10;53.30;;;;;;6277285;28;19921;-69
2023/05/08 09:23:34;;;;;;;;;;;19.10;53.30;;;;;;6269004;28;19913;-66
2023/05/08 09:26:36;;;;;;;;;;;19.10;53.40;;;;;;6276944;28;19916;-66
2023/05/08 09:29:37;;;;;;;;;;;19.10;53.30;;;;;;6295051;28;20392;-66
2023/05/08 09:32:39;;;;;;;;;;;19.10;53.20;;;;;;6295008;28;19912;-66
2023/05/08 09:35:40;;;;;;;;;;;19.10;53.40;;;;;;6276900;28;19943;-66
2023/05/08 09:38:42;;;;;;;;;;;19.10;53.50;;;;;;6277035;28;19915;-66
2023/05/08 09:41:55;;;;;;;;;;;19.10;53.60;;;;;;6298159;28;19912;-65
2023/05/08 09:44:56;;;;;;;;;;;19.10;53.60;;;;;;6294475;28;19924;-66
2023/05/08 09:47:56;;;;;;;;;;;19.10;53.60;;;;;;6294420;28;19916;-65
2023/05/08 09:51:07;;;;;;;;;;;19.10;53.70;;;;;;6295453;28;20288;-67
2023/05/08 09:54:16;;;;;;;;;;;19.10;53.70;;;;;;6284622;28;19919;-67
2023/05/08 09:57:16;;;;;;;;;;;19.10;53.70;;;;;;6295145;28;19915;-67
2023/05/08 10:00:17;;;;;;;;;;;19.10;53.60;;;;;;6294936;28;19912;-67
2023/05/08 10:03:17;;;;;;;;;;;19.10;53.70;;;;;;6294789;28;20007;-67
2023/05/08 10:06:18;;;;;;;;;;;19.10;53.70;;;;;;6319734;28;20432;-67
2023/05/08 10:09:18;;;;;;;;;;;19.10;53.80;;;;;;6294637;28;19912;-66
2023/05/08 10:12:20;;;;;;;;;;;19.10;53.80;;;;;;6295335;28;19962;-67
2023/05/08 10:15:25;;;;;;;;;;;19.10;53.90;;;;;;6276935;28;19908;-67
2023/05/08 10:18:28;;;;;;;;;;;19.10;54.60;;;;;;6304187;28;19912;-67
2023/05/08 10:21:31;;;;;;;;;;;19.10;53.90;;;;;;6320015;28;19958;-66
2023/05/08 10:24:32;;;;;;;;;;;19.10;54.00;;;;;;6303417;28;19908;-67
2023/05/08 10:27:51;;;;;;;;;;;19.10;54.00;;;;;;6313242;28;20326;-66
2023/05/08 10:30:55;;;;;;;;;;;19.10;54.00;;;;;;6295097;28;20046;-67
2023/05/08 10:33:59;;;;;;;;;;;19.10;54.00;;;;;;6294850;28;19998;-67
2023/05/08 10:37:00;;;;;;;;;;;19.10;54.00;;;;;;6294418;28;19947;-67
2023/05/08 10:40:01;;;;;;;;;;;19.10;54.00;;;;;;6294882;28;19912;-67
2023/05/08 10:43:02;;;;;;;;;;;19.10;54.00;;;;;;6294518;28;19919;-67
2023/05/08 10:46:08;;;;;;;;;;;19.10;54.00;;;;;;6294435;28;19920;-67
2023/05/08 10:49:15;;;;;;;;;;;19.10;54.10;;;;;;6294204;28;19952;-67
2023/05/08 10:52:22;;;;;;;;;;;19.10;54.10;;;;;;6294312;28;20221;-66
2023/05/08 10:55:30;;;;;;;;;;;19.10;54.10;;;;;;6294573;28;19915;-67
2023/05/08 10:58:31;;;;;;;;;;;19.10;54.10;;;;;;6278232;28;20004;-67
2023/05/08 11:01:31;;;;;;;;;;;19.10;54.10;;;;;;6294543;28;19916;-66
2023/05/08 11:04:32;;;;;;;;;;;19.10;54.10;;;;;;6267971;28;19917;-66
2023/05/08 11:07:51;;;;;;;;;;;19.10;54.10;;;;;;6274654;28;19991;-67
2023/05/08 11:11:03;;;;;;;;;;;19.10;54.10;;;;;;6294527;28;19969;-67
2023/05/08 11:14:07;;;;;;;;;;;19.10;54.10;;;;;;6284490;28;19914;-67
2023/05/08 11:17:08;;;;;;;;;;;19.10;54.10;;;;;;6299057;28;19908;-66
2023/05/08 11:20:09;;;;;;;;;;;19.10;54.10;;;;;;6298448;28;19912;-66
2023/05/08 11:23:21;;;;;;;;;;;19.10;54.10;;;;;;6296783;28;19947;-66
2023/05/08 11:26:36;;;;;;;;;;;19.10;54.10;;;;;;6299502;28;19978;-67
2023/05/08 11:29:38;;;;;;;;;;;19.10;54.10;;;;;;6309566;28;20349;-67
2023/05/08 11:32:55;;;;;;;;;;;19.10;54.10;;;;;;6323981;28;20300;-67
2023/05/08 11:35:55;;;;;;;;;;;19.10;54.10;;;;;;6255968;28;19916;-67
2023/05/08 11:39:07;;;;;;;;;;;19.10;54.10;;;;;;6263833;28;20362;-66
2023/05/08 11:42:37;;;;;;;;;;;19.10;54.10;;;;;;6298497;28;20023;-67
2023/05/08 11:45:39;;;;;;;;;;;19.10;54.10;;;;;;6280956;28;20006;-67
2023/05/08 11:48:39;;;;;;;;;;;19.10;54.20;;;;;;6297982;28;20033;-67
2023/05/08 11:51:43;;;;;;;;;;;19.10;54.20;;;;;;6285112;28;19916;-67
2023/05/08 11:54:44;;;;;;;;;;;19.10;54.20;;;;;;6274568;28;19988;-65
2023/05/08 11:57:44;;;;;;;;;;;19.10;54.20;;;;;;6279969;28;19908;-66
2023/05/08 12:00:46;;;;;;;;;;;19.10;54.20;;;;;;6321616;28;19912;-65
2023/05/08 12:03:46;;;;;;;;;;;19.10;54.20;;;;;;6318559;28;19919;-66
2023/05/08 12:06:49;;;;;;;;;;;19.10;54.20;;;;;;6283700;28;19909;-65
2023/05/08 12:09:50;;;;;;;;;;;19.10;54.20;;;;;;6282945;28;20345;-66
2023/05/08 12:12:50;;;;;;;;;;;19.10;54.30;;;;;;6296818;28;19915;-67
2023/05/08 12:15:52;;;;;;;;;;;19.10;54.30;;;;;;6296929;28;19913;-65
2023/05/08 12:18:55;;;;;;;;;;;19.10;54.20;;;;;;6297207;28;19924;-65
2023/05/08 12:21:56;;;;;;;;;;;19.10;54.30;;;;;;6297639;28;20345;-66
2023/05/08 12:24:56;;;;;;;;;;;19.10;54.30;;;;;;6281174;28;19909;-66
2023/05/08 12:27:58;;;;;;;;;;;19.10;54.30;;;;;;6297769;28;19965;-66
2023/05/08 12:31:02;;;;;;;;;;;19.10;54.30;;;;;;6296821;28;20401;-66
2023/05/08 12:34:04;;;;;;;;;;;19.10;54.30;;;;;;6262144;28;19920;-66
2023/05/08 12:37:04;;;;;;;;;;;19.10;54.40;;;;;;6297034;28;19908;-66
2023/05/08 12:40:05;;;;;;;;;;;19.10;54.40;;;;;;6295678;28;19966;-66
2023/05/08 12:43:06;;;;;;;;;;;19.10;55.10;;;;;;6278818;28;19935;-66
2023/05/08 12:46:10;;;;;;;;;;;19.10;54.30;;;;;;6311795;28;20347;-66
2023/05/08 12:49:11;;;;;;;;;;;19.20;54.30;;;;;;6298707;28;19912;-66
2023/05/08 12:52:12;;;;;;;;;;;19.20;54.50;;;;;;6296901;28;19987;-66
2023/05/08 12:55:23;;;;;;;;;;;19.20;54.30;;;;;;6288647;28;19947;-66
2023/05/08 12:58:24;;;;;;;;;;;19.30;54.10;;;;;;6296274;28;19913;-66
2023/05/08 13:01:25;;;;;;;;;;;19.30;54.10;;;;;;6305811;28;19916;-66
2023/05/08 13:04:25;;;;;;;;;;;19.30;54.30;;;;;;6305832;28;20115;-66
2023/05/08 13:07:30;;;;;;;;;;;19.30;54.20;;;;;;6296507;28;20365;-66
2023/05/08 13:10:47;;;;;;;;;;;19.30;54.20;;;;;;6293716;28;20023;-66
2023/05/08 13:13:47;;;;;;;;;;;19.30;54.30;;;;;;6293927;28;19995;-65
2023/05/08 13:16:48;;;;;;;;;;;19.20;54.30;;;;;;6292115;28;19920;-66
2023/05/08 13:19:48;;;;;;;;;;;19.20;54.30;;;;;;6271598;28;19905;-65
2023/05/08 13:22:49;;;;;;;;;;;19.20;54.30;;;;;;6295199;28;19916;-65
2023/05/08 13:25:50;;;;;;;;;;;19.20;54.30;;;;;;6299390;28;19908;-66
2023/05/08 13:28:51;;;;;;;;;;;19.20;54.30;;;;;;6320217;28;19908;-66
2023/05/08 13:31:51;;;;;;;;;;;19.20;54.40;;;;;;6289851;28;19917;-66
2023/05/08 13:34:52;;;;;;;;;;;19.20;54.30;;;;;;6294515;28;19962;-65
2023/05/08 13:37:53;;;;;;;;;;;19.20;54.30;;;;;;6295259;28;19912;-65
2023/05/08 13:40:54;;;;;;;;;;;19.20;54.40;;;;;;6295110;28;19924;-67
2023/05/08 13:43:54;;;;;;;;;;;19.20;54.40;;;;;;6277875;28;19977;-66
2023/05/08 13:46:55;;;;;;;;;;;19.20;54.30;;;;;;6299933;28;19920;-65
2023/05/08 13:49:55;;;;;;;;;;;19.20;54.30;;;;;;6320587;28;19909;-65
2023/05/08 13:52:56;;;;;;;;;;;19.20;54.30;;;;;;6293992;28;19944;-65
2023/05/08 13:55:57;;;;;;;;;;;19.20;54.40;;;;;;6270910;28;20023;-64
2023/05/08 13:58:57;;;;;;;;;;;19.20;54.30;;;;;;6276939;28;19910;-64
2023/05/08 14:01:58;;;;;;;;;;;19.20;54.40;;;;;;6270253;28;19913;-67
2023/05/08 14:04:59;;;;;;;;;;;19.20;54.40;;;;;;6271052;28;20413;-66
2023/05/08 14:08:00;;;;;;;;;;;19.20;54.40;;;;;;6294739;28;19912;-66
2023/05/08 14:11:00;;;;;;;;;;;19.20;54.30;;;;;;6294464;28;19908;-66
2023/05/08 14:14:01;;;;;;;;;;;19.20;54.30;;;;;;6294220;28;19909;-65
2023/05/08 14:17:02;;;;;;;;;;;19.20;54.30;;;;;;6300651;28;19916;-66
2023/05/08 14:20:03;;;;;;;;;;;19.20;54.30;;;;;;6310127;28;19908;-66
2023/05/08 14:23:04;;;;;;;;;;;19.20;54.30;;;;;;6294527;28;20451;-66
2023/05/08 14:26:05;;;;;;;;;;;19.20;54.30;;;;;;6293978;28;19909;-67
2023/05/08 14:29:05;;;;;;;;;;;19.20;54.40;;;;;;6267926;28;19916;-67
2023/05/08 14:32:08;;;;;;;;;;;19.20;54.40;;;;;;6274142;28;19908;-66
2023/05/08 14:35:09;;;;;;;;;;;19.20;54.30;;;;;;6294249;28;19966;-66
2023/05/08 14:38:10;;;;;;;;;;;19.20;54.40;;;;;;6301115;28;19915;-67
2023/05/08 14:41:11;;;;;;;;;;;19.20;54.40;;;;;;6301871;28;19961;-67
2023/05/08 14:44:11;;;;;;;;;;;19.20;54.30;;;;;;6295890;28;19908;-67
2023/05/08 14:47:12;;;;;;;;;;;19.20;54.40;;;;;;6297534;28;20010;-67
2023/05/08 14:50:12;;;;;;;;;;;19.30;54.40;;;;;;6299272;28;20315;-67
2023/05/08 14:53:13;;;;;;;;;;;19.30;54.40;;;;;;6292370;28;19909;-67
2023/05/08 14:56:13;;;;;;;;;;;19.20;54.30;;;;;;6273583;28;19913;-67
2023/05/08 14:59:14;;;;;;;;;;;19.20;54.30;;;;;;6294390;28;19912;-67
2023/05/08 15:02:16;;;;;;;;;;;19.20;54.30;;;;;;6298593;28;19966;-67
2023/05/08 15:05:17;;;;;;;;;;;19.20;54.40;;;;;;6280297;28;20417;-67
2023/05/08 15:08:17;;;;;;;;;;;19.20;54.30;;;;;;6298812;28;19959;-67
2023/05/08 15:11:18;;;;;;;;;;;19.20;54.40;;;;;;6298952;28;19908;-66
2023/05/08 15:14:19;;;;;;;;;;;19.20;54.40;;;;;;6314883;28;20003;-67
2023/05/08 15:17:19;;;;;;;;;;;19.20;54.40;;;;;;6321466;28;20354;-67
2023/05/08 15:20:20;;;;;;;;;;;19.20;54.40;;;;;;6298449;28;19935;-66
2023/05/08 15:23:20;;;;;;;;;;;19.20;54.40;;;;;;6298009;28;19948;-66
2023/05/08 15:26:21;;;;;;;;;;;19.20;54.50;;;;;;6297968;28;20246;-67
2023/05/08 15:29:22;;;;;;;;;;;19.20;54.40;;;;;;6272354;28;20003;-67
2023/05/08 15:32:23;;;;;;;;;;;19.20;54.40;;;;;;6273313;28;20417;-66
2023/05/08 15:35:23;;;;;;;;;;;19.20;54.40;;;;;;6296038;28;19915;-67
2023/05/08 15:38:24;;;;;;;;;;;19.20;54.40;;;;;;6279914;28;19915;-67
2023/05/08 15:41:24;;;;;;;;;;;19.20;54.50;;;;;;6298037;28;19917;-67
2023/05/08 15:44:25;;;;;;;;;;;19.20;54.40;;;;;;6283942;28;19920;-67
2023/05/08 15:47:26;;;;;;;;;;;19.20;54.40;;;;;;6297745;28;20281;-67
2023/05/08 15:50:26;;;;;;;;;;;19.20;54.50;;;;;;6297248;28;19997;-66
2023/05/08 15:53:27;;;;;;;;;;;19.20;54.50;;;;;;6294471;28;19908;-66
2023/05/08 15:56:27;;;;;;;;;;;19.20;54.50;;;;;;6322649;28;19908;-67
2023/05/08 15:59:28;;;;;;;;;;;19.20;54.50;;;;;;6310345;28;19909;-67
2023/05/08 16:02:28;;;;;;;;;;;19.20;54.50;;;;;;6297184;28;19955;-66
2023/05/08 16:05:30;;;;;;;;;;;19.20;55.20;;;;;;6290798;28;19973;-67
2023/05/08 16:08:31;;;;;;;;;;;19.20;54.50;;;;;;6297585;28;19909;-67
2023/05/08 16:11:31;;;;;;;;;;;19.20;54.50;;;;;;6298049;28;19908;-67
2023/05/08 16:14:32;;;;;;;;;;;19.20;54.60;;;;;;6297278;28;19912;-68
2023/05/08 16:17:33;;;;;;;;;;;19.20;54.60;;;;;;6297840;28;19913;-68
2023/05/08 16:20:33;;;;;;;;;;;19.20;54.60;;;;;;6296242;28;19913;-67
2023/05/08 16:23:34;;;;;;;;;;;19.20;54.60;;;;;;6277266;28;19909;-67
2023/05/08 16:26:34;;;;;;;;;;;19.20;54.60;;;;;;6277050;28;19970;-67
2023/05/08 16:29:35;;;;;;;;;;;19.20;54.60;;;;;;6295276;28;20369;-66
2023/05/08 16:32:36;;;;;;;;;;;19.20;54.60;;;;;;6295119;28;19940;-67
2023/05/08 16:35:38;;;;;;;;;;;19.20;54.60;;;;;;6279116;28;20331;-66
2023/05/08 16:38:38;;;;;;;;;;;19.20;54.60;;;;;;6294970;28;20366;-66
2023/05/08 16:41:39;;;;;;;;;;;19.20;54.50;;;;;;6276558;28;19919;-65
2023/05/08 16:44:39;;;;;;;;;;;19.20;54.60;;;;;;6294539;28;19919;-67
2023/05/08 16:47:40;;;;;;;;;;;19.20;54.50;;;;;;6294615;28;20358;-67
2023/05/08 16:50:41;;;;;;;;;;;19.20;54.60;;;;;;6294756;28;19908;-67
2023/05/08 16:53:41;;;;;;;;;;;19.20;54.60;;;;;;6294747;28;19914;-67
2023/05/08 16:56:42;;;;;;;;;;;19.20;54.60;;;;;;6276743;28;19974;-67
2023/05/08 16:59:42;;;;;;;;;;;19.20;54.70;;;;;;6294361;28;19912;-67
2023/05/08 17:02:43;;;;;;;;;;;19.20;54.60;;;;;;6293043;28;19917;-67
2023/05/08 17:05:43;;;;;;;;;;;19.20;54.60;;;;;;6293504;28;20403;-67
2023/05/08 17:08:44;;;;;;;;;;;19.20;54.60;;;;;;6293830;28;19908;-67
2023/05/08 17:11:45;;;;;;;;;;;19.20;54.60;;;;;;6275578;28;19908;-67
2023/05/08 17:14:46;;;;;;;;;;;19.20;54.60;;;;;;6275815;28;19933;-67
2023/05/08 17:17:48;;;;;;;;;;;19.20;54.60;;;;;;6275428;28;19915;-66
2023/05/08 17:20:49;;;;;;;;;;;19.20;54.70;;;;;;6292891;28;20285;-71
2023/05/08 17:23:49;;;;;;;;;;;19.20;54.60;;;;;;6296241;28;19951;-69
2023/05/08 17:26:50;;;;;;;;;;;19.20;54.60;;;;;;6275346;28;19915;-66
2023/05/08 17:29:50;;;;;;;;;;;19.20;54.70;;;;;;6269138;28;19911;-67
2023/05/08 17:32:51;;;;;;;;;;;19.20;54.60;;;;;;6250963;28;19919;-67
2023/05/08 17:35:51;;;;;;;;;;;19.20;54.60;;;;;;6268710;28;20411;-67
2023/05/08 17:38:52;;;;;;;;;;;19.20;54.70;;;;;;6268965;28;19913;-67
2023/05/08 17:41:54;;;;;;;;;;;19.20;54.70;;;;;;6283704;28;20011;-67